Time;durP1;ratioP1;P1;durP2;ratioP2;P2;SDS_P1;SDS_P2;PMS_P1;PMS_P2;Temp;Humidity;BMP_temperature;BMP_pressure;BME280_temperature;BME280_humidity;BME280_pressure;Samples;Min_cycle;Max_cycle;Signal;HPM_P1;HPM_P2
2021/08/22 00:00:41;;;;;;;;;;;17.90;98.10;;;;;;5035665;28;19998;-66
2021/08/22 00:03:07;;;;;;;;;;;17.90;97.90;;;;;;5035442;28;19917;-66
2021/08/22 00:05:34;;;;;;;;;;;17.90;98.70;;;;;;5035141;28;19986;-66
2021/08/22 00:08:01;;;;;;;;;;;17.80;99.00;;;;;;5035207;28;19909;-66
2021/08/22 00:10:27;;;;;;;;;;;17.70;99.20;;;;;;5035087;28;19916;-66
2021/08/22 00:12:54;;;;;;;;;;;17.60;99.20;;;;;;5034487;28;19936;-66
2021/08/22 00:15:21;;;;;;;;;;;17.50;99.40;;;;;;5035146;28;20338;-66
2021/08/22 00:17:47;;;;;;;;;;;17.50;99.40;;;;;;5034834;28;19956;-66
2021/08/22 00:20:14;;;;;;;;;;;17.60;99.50;;;;;;5035142;28;19909;-66
2021/08/22 00:22:40;;;;;;;;;;;17.60;99.50;;;;;;5034818;28;19917;-67
2021/08/22 00:25:07;;;;;;;;;;;17.70;99.20;;;;;;5034873;28;20333;-67
2021/08/22 00:27:34;;;;;;;;;;;17.70;99.50;;;;;;5034186;28;20122;-66
2021/08/22 00:30:00;;;;;;;;;;;17.70;99.50;;;;;;5034958;28;19955;-66
2021/08/22 00:32:27;;;;;;;;;;;17.60;99.90;;;;;;5034784;28;20279;-66
2021/08/22 00:34:54;;;;;;;;;;;17.70;99.90;;;;;;5034764;28;19909;-66
2021/08/22 00:37:21;;;;;;;;;;;17.60;99.90;;;;;;5034673;28;19937;-66
2021/08/22 00:39:48;;;;;;;;;;;17.70;99.90;;;;;;5034674;28;20023;-66
2021/08/22 00:42:15;;;;;;;;;;;17.70;99.70;;;;;;5034273;28;20283;-66
2021/08/22 00:44:42;;;;;;;;;;;17.70;99.60;;;;;;5034548;28;19909;-67
2021/08/22 00:47:08;;;;;;;;;;;18.20;96.30;;;;;;5034305;28;20143;-66
2021/08/22 00:49:36;;;;;;;;;;;18.60;95.10;;;;;;5033794;28;19909;-66
2021/08/22 00:52:05;;;;;;;;;;;19.20;93.50;;;;;;5034374;28;19909;-67
2021/08/22 00:54:33;;;;;;;;;;;19.30;94.50;;;;;;5034303;28;19910;-67
2021/08/22 00:57:00;;;;;;;;;;;19.10;97.10;;;;;;5033782;28;20390;-67
2021/08/22 00:59:27;;;;;;;;;;;19.10;94.10;;;;;;5034282;28;19983;-67
2021/08/22 01:01:54;;;;;;;;;;;19.00;96.10;;;;;;5034193;28;19917;-67
2021/08/22 01:04:25;;;;;;;;;;;19.10;95.60;;;;;;5034460;28;19909;-67
2021/08/22 01:07:18;;;;;;;;;;;19.10;94.60;;;;;;5034235;28;20339;-66
2021/08/22 01:09:46;;;;;;;;;;;19.20;93.50;;;;;;5033439;28;20261;-66
2021/08/22 01:12:19;;;;;;;;;;;19.60;92.90;;;;;;5033384;28;19984;-66
2021/08/22 01:14:48;;;;;;;;;;;20.70;90.90;;;;;;5034065;28;19955;-66
2021/08/22 01:17:15;;;;;;;;;;;21.20;90.30;;;;;;5034152;28;19916;-66
2021/08/22 01:19:59;;;;;;;;;;;21.30;90.10;;;;;;5033883;28;20376;-67
2021/08/22 01:22:27;;;;;;;;;;;21.60;89.10;;;;;;5033882;28;19991;-66
2021/08/22 01:24:55;;;;;;;;;;;22.40;86.80;;;;;;5033877;28;19916;-66
2021/08/22 01:27:22;;;;;;;;;;;22.80;83.90;;;;;;5033349;28;19910;-66
2021/08/22 01:30:06;;;;;;;;;;;23.30;81.00;;;;;;5033448;28;19916;-66
2021/08/22 01:32:42;;;;;;;;;;;23.20;79.90;;;;;;5033783;28;20320;-66
2021/08/22 01:35:11;;;;;;;;;;;22.80;81.40;;;;;;5033585;28;19915;-67
2021/08/22 01:37:38;;;;;;;;;;;22.50;81.60;;;;;;5033268;28;19909;-66
2021/08/22 01:40:06;;;;;;;;;;;22.30;81.60;;;;;;5033537;28;19940;-66
2021/08/22 01:42:34;;;;;;;;;;;22.20;81.80;;;;;;5032881;28;20048;-66
2021/08/22 01:45:04;;;;;;;;;;;22.10;81.00;;;;;;5033637;28;20008;-66
2021/08/22 01:47:31;;;;;;;;;;;22.30;81.20;;;;;;5033104;28;19921;-66
2021/08/22 01:49:58;;;;;;;;;;;22.30;80.70;;;;;;5033660;28;20010;-66
2021/08/22 01:52:24;;;;;;;;;;;22.40;79.10;;;;;;5033189;28;19909;-67
2021/08/22 01:54:51;;;;;;;;;;;22.30;81.20;;;;;;5033300;28;19981;-66
2021/08/22 01:57:18;;;;;;;;;;;22.30;80.00;;;;;;5032729;28;19916;-66
2021/08/22 01:59:45;;;;;;;;;;;22.20;79.90;;;;;;5032947;28;20001;-66
2021/08/22 02:02:11;;;;;;;;;;;22.40;79.50;;;;;;5032182;28;19963;-67
2021/08/22 02:04:49;;;;;;;;;;;22.50;79.70;;;;;;5033202;28;19936;-66
2021/08/22 02:07:21;;;;;;;;;;;22.60;77.00;;;;;;5033064;28;19909;-66
2021/08/22 02:10:00;;;;;;;;;;;22.50;78.50;;;;;;5031707;28;20265;-66
2021/08/22 02:12:27;;;;;;;;;;;22.50;79.20;;;;;;5032572;28;20323;-67
2021/08/22 02:15:13;;;;;;;;;;;22.60;78.40;;;;;;5033163;28;20011;-67
2021/08/22 02:17:48;;;;;;;;;;;22.50;78.10;;;;;;5032183;28;19963;-67
2021/08/22 02:20:15;;;;;;;;;;;22.60;76.90;;;;;;5032880;28;19975;-67
2021/08/22 02:22:45;;;;;;;;;;;22.40;78.20;;;;;;5032724;28;20011;-66
2021/08/22 02:25:13;;;;;;;;;;;22.50;76.70;;;;;;5032089;28;20368;-67
2021/08/22 02:27:39;;;;;;;;;;;22.70;76.50;;;;;;5032086;28;19913;-67
2021/08/22 02:30:07;;;;;;;;;;;22.80;76.00;;;;;;5032620;28;19909;-66
2021/08/22 02:32:34;;;;;;;;;;;22.90;75.10;;;;;;5032799;28;19909;-66
2021/08/22 02:35:00;;;;;;;;;;;22.90;75.10;;;;;;5032579;28;19913;-66
2021/08/22 02:37:28;;;;;;;;;;;23.00;74.30;;;;;;5032235;28;19916;-67
2021/08/22 02:39:55;;;;;;;;;;;23.00;75.00;;;;;;5032135;28;19909;-66
2021/08/22 02:42:22;;;;;;;;;;;22.90;74.50;;;;;;5032407;28;20376;-67
2021/08/22 02:44:49;;;;;;;;;;;23.00;72.80;;;;;;5032467;28;19921;-66
2021/08/22 02:47:16;;;;;;;;;;;23.00;74.20;;;;;;5032295;28;20007;-67
2021/08/22 02:49:43;;;;;;;;;;;23.00;74.50;;;;;;5032216;28;19910;-66
2021/08/22 02:52:10;;;;;;;;;;;23.00;73.90;;;;;;5032448;28;19920;-67
2021/08/22 02:54:37;;;;;;;;;;;23.10;74.00;;;;;;5032286;28;20020;-67
2021/08/22 02:57:04;;;;;;;;;;;23.10;74.00;;;;;;5032063;28;19920;-66
2021/08/22 02:59:30;;;;;;;;;;;23.10;72.80;;;;;;5032154;28;19909;-66
2021/08/22 03:01:57;;;;;;;;;;;23.20;72.00;;;;;;5032152;28;20015;-67
2021/08/22 03:04:24;;;;;;;;;;;23.20;72.80;;;;;;5032239;28;19910;-67
2021/08/22 03:06:50;;;;;;;;;;;23.20;71.60;;;;;;5031852;28;19913;-67
2021/08/22 03:09:17;;;;;;;;;;;23.20;72.70;;;;;;5032138;28;19909;-66
2021/08/22 03:11:43;;;;;;;;;;;23.00;72.50;;;;;;5032181;28;19984;-67
2021/08/22 03:14:11;;;;;;;;;;;23.10;72.30;;;;;;5036063;28;19963;-67
2021/08/22 03:16:37;;;;;;;;;;;23.30;71.30;;;;;;5036351;28;20332;-67
2021/08/22 03:19:04;;;;;;;;;;;23.20;70.90;;;;;;5036424;28;19932;-67
2021/08/22 03:21:31;;;;;;;;;;;23.20;70.80;;;;;;5035621;28;19921;-67
2021/08/22 03:23:57;;;;;;;;;;;23.00;74.20;;;;;;5036148;28;19909;-67
2021/08/22 03:26:24;;;;;;;;;;;22.90;77.90;;;;;;5036167;28;19910;-67
2021/08/22 03:28:51;;;;;;;;;;;22.80;78.80;;;;;;5036196;28;19915;-67
2021/08/22 03:31:18;;;;;;;;;;;22.80;84.50;;;;;;5036307;28;19917;-67
2021/08/22 03:33:44;;;;;;;;;;;22.70;85.10;;;;;;5035629;28;19909;-67
2021/08/22 03:36:11;;;;;;;;;;;22.60;85.40;;;;;;5035919;28;19928;-67
2021/08/22 03:38:38;;;;;;;;;;;22.50;85.60;;;;;;5035961;28;20290;-67
2021/08/22 03:41:05;;;;;;;;;;;22.50;84.70;;;;;;5035923;28;19909;-67
2021/08/22 03:43:31;;;;;;;;;;;22.40;85.20;;;;;;5035546;28;20272;-67
2021/08/22 03:45:58;;;;;;;;;;;22.40;85.20;;;;;;5035691;28;19909;-66
2021/08/22 03:48:25;;;;;;;;;;;22.40;85.20;;;;;;5035664;28;19921;-67
2021/08/22 03:50:51;;;;;;;;;;;22.30;85.20;;;;;;5035693;28;19951;-66
2021/08/22 03:53:18;;;;;;;;;;;22.30;85.00;;;;;;5035569;28;19910;-67
2021/08/22 03:55:45;;;;;;;;;;;22.30;85.60;;;;;;5035303;28;19920;-66
2021/08/22 03:58:12;;;;;;;;;;;22.30;85.50;;;;;;5035587;28;19916;-68
2021/08/22 04:00:39;;;;;;;;;;;22.30;85.60;;;;;;5035407;28;20422;-66
2021/08/22 04:03:05;;;;;;;;;;;22.30;86.00;;;;;;5035431;28;19917;-66
2021/08/22 04:05:33;;;;;;;;;;;22.40;84.90;;;;;;5034782;28;19910;-65
2021/08/22 04:08:00;;;;;;;;;;;22.40;85.10;;;;;;5036183;28;20375;-66
2021/08/22 04:10:27;;;;;;;;;;;22.40;85.00;;;;;;5036516;28;20011;-67
2021/08/22 04:12:54;;;;;;;;;;;22.30;85.10;;;;;;5036705;28;19924;-66
2021/08/22 04:15:21;;;;;;;;;;;22.30;85.20;;;;;;5038002;28;19909;-67
2021/08/22 04:17:48;;;;;;;;;;;22.30;84.60;;;;;;5040265;28;19917;-67
2021/08/22 04:20:14;;;;;;;;;;;22.30;85.30;;;;;;5041281;28;19909;-67
2021/08/22 04:22:41;;;;;;;;;;;22.30;85.10;;;;;;5036577;28;19984;-66
2021/08/22 04:25:09;;;;;;;;;;;22.30;85.00;;;;;;5035604;28;19971;-67
2021/08/22 04:27:36;;;;;;;;;;;22.20;85.50;;;;;;5035685;28;19913;-67
2021/08/22 04:30:03;;;;;;;;;;;22.20;86.10;;;;;;5036484;28;19916;-66
2021/08/22 04:32:29;;;;;;;;;;;22.30;86.00;;;;;;5036561;28;19913;-66
2021/08/22 04:34:56;;;;;;;;;;;22.30;86.20;;;;;;5036683;28;20019;-66
2021/08/22 04:37:22;;;;;;;;;;;22.30;85.60;;;;;;5035285;28;19913;-68
2021/08/22 04:39:49;;;;;;;;;;;22.30;86.60;;;;;;5034672;28;19913;-66
2021/08/22 04:42:16;;;;;;;;;;;22.30;86.30;;;;;;5034611;28;20236;-67
2021/08/22 04:44:42;;;;;;;;;;;22.30;86.30;;;;;;5034742;28;20387;-66
2021/08/22 04:47:09;;;;;;;;;;;22.30;85.20;;;;;;5034398;28;19925;-67
2021/08/22 04:49:36;;;;;;;;;;;22.30;84.80;;;;;;5066307;28;20441;-66
2021/08/22 04:52:02;;;;;;;;;;;22.30;84.20;;;;;;5034631;28;19909;-66
2021/08/22 04:54:32;;;;;;;;;;;22.20;84.60;;;;;;5034704;28;19991;-66
2021/08/22 04:56:59;;;;;;;;;;;22.30;84.80;;;;;;5034211;28;19920;-66
2021/08/22 04:59:25;;;;;;;;;;;22.30;84.10;;;;;;5034497;28;20023;-66
2021/08/22 05:01:52;;;;;;;;;;;22.30;83.10;;;;;;5034091;28;20292;-66
2021/08/22 05:04:19;;;;;;;;;;;22.30;83.50;;;;;;5034372;28;19913;-66
2021/08/22 05:06:45;;;;;;;;;;;22.20;83.10;;;;;;5034184;28;19944;-66
2021/08/22 05:09:12;;;;;;;;;;;22.30;84.20;;;;;;5034260;28;19909;-66
2021/08/22 05:11:39;;;;;;;;;;;22.30;85.60;;;;;;5033790;28;19920;-66
2021/08/22 05:14:05;;;;;;;;;;;22.20;86.00;;;;;;5034395;28;20430;-65
2021/08/22 05:16:32;;;;;;;;;;;22.20;87.00;;;;;;5034278;28;19953;-66
2021/08/22 05:18:59;;;;;;;;;;;22.20;85.60;;;;;;5034042;28;20339;-66
2021/08/22 05:21:27;;;;;;;;;;;22.20;85.70;;;;;;5033926;28;19940;-66
2021/08/22 05:23:54;;;;;;;;;;;22.20;84.30;;;;;;5033874;28;19971;-66
2021/08/22 05:26:20;;;;;;;;;;;22.20;82.70;;;;;;5033766;28;19909;-66
2021/08/22 05:28:47;;;;;;;;;;;22.30;81.90;;;;;;5034050;28;19916;-66
2021/08/22 05:31:14;;;;;;;;;;;22.20;81.10;;;;;;5034075;28;19916;-67
2021/08/22 05:33:40;;;;;;;;;;;22.20;80.50;;;;;;5034047;28;19976;-66
2021/08/22 05:36:17;;;;;;;;;;;22.20;81.40;;;;;;5033742;28;19916;-66
2021/08/22 05:38:44;;;;;;;;;;;22.20;81.10;;;;;;5033955;28;19969;-67
2021/08/22 05:41:10;;;;;;;;;;;22.20;80.50;;;;;;5034065;28;19916;-67
2021/08/22 05:43:37;;;;;;;;;;;22.10;80.40;;;;;;5033591;28;19921;-68
2021/08/22 05:46:04;;;;;;;;;;;22.10;80.10;;;;;;5033552;28;20334;-67
2021/08/22 05:48:32;;;;;;;;;;;22.10;78.90;;;;;;5033776;28;19920;-65
2021/08/22 05:50:59;;;;;;;;;;;22.10;79.40;;;;;;5033517;28;19964;-67
2021/08/22 05:53:28;;;;;;;;;;;22.00;80.30;;;;;;5033470;28;19909;-66
2021/08/22 05:55:55;;;;;;;;;;;22.00;79.50;;;;;;5033251;28;19916;-66
2021/08/22 05:58:22;;;;;;;;;;;21.90;79.70;;;;;;5033301;28;19963;-67
2021/08/22 06:00:49;;;;;;;;;;;21.90;80.50;;;;;;5033193;28;19913;-67
2021/08/22 06:03:15;;;;;;;;;;;21.80;81.00;;;;;;5033158;28;20402;-66
2021/08/22 06:05:42;;;;;;;;;;;21.70;81.30;;;;;;5033015;28;20276;-67
2021/08/22 06:08:09;;;;;;;;;;;21.70;81.80;;;;;;5031887;28;19964;-67
2021/08/22 06:10:35;;;;;;;;;;;21.70;82.30;;;;;;5033122;28;19913;-67
2021/08/22 06:13:02;;;;;;;;;;;21.60;82.70;;;;;;5032878;28;19963;-67
2021/08/22 06:15:29;;;;;;;;;;;21.50;82.80;;;;;;5030772;28;19913;-68
2021/08/22 06:17:55;;;;;;;;;;;21.50;81.90;;;;;;5032476;28;20372;-67
2021/08/22 06:20:22;;;;;;;;;;;21.50;82.40;;;;;;5032791;28;19963;-67
2021/08/22 06:22:49;;;;;;;;;;;21.40;83.20;;;;;;5032981;28;19921;-69
2021/08/22 06:25:15;;;;;;;;;;;21.30;83.30;;;;;;5032962;28;20347;-67
2021/08/22 06:27:42;;;;;;;;;;;21.30;83.90;;;;;;5032677;28;19950;-67
2021/08/22 06:30:09;;;;;;;;;;;21.20;84.40;;;;;;5032894;28;20339;-67
2021/08/22 06:32:36;;;;;;;;;;;21.10;84.90;;;;;;5032073;28;19909;-67
2021/08/22 06:35:02;;;;;;;;;;;21.00;85.60;;;;;;5032488;28;19920;-67
2021/08/22 06:37:29;;;;;;;;;;;21.00;86.30;;;;;;5033230;28;19935;-67
2021/08/22 06:39:56;;;;;;;;;;;20.90;87.30;;;;;;5033064;28;19996;-67
2021/08/22 06:42:22;;;;;;;;;;;20.90;87.80;;;;;;5033068;28;19917;-67
2021/08/22 06:44:49;;;;;;;;;;;20.80;88.70;;;;;;5033323;28;19955;-67
2021/08/22 06:47:15;;;;;;;;;;;20.80;89.10;;;;;;5032366;28;20330;-67
2021/08/22 06:49:42;;;;;;;;;;;20.70;89.70;;;;;;5032826;28;20251;-67
2021/08/22 06:52:09;;;;;;;;;;;20.60;90.10;;;;;;5033363;28;19958;-69
2021/08/22 06:54:38;;;;;;;;;;;20.60;90.40;;;;;;5032893;28;19910;-67
2021/08/22 06:57:05;;;;;;;;;;;20.50;90.80;;;;;;5032751;28;19909;-67
2021/08/22 06:59:31;;;;;;;;;;;20.50;91.20;;;;;;5032484;28;20371;-66
2021/08/22 07:01:58;;;;;;;;;;;20.40;91.50;;;;;;5032820;28;20383;-66
2021/08/22 07:04:25;;;;;;;;;;;20.40;91.80;;;;;;5032784;28;19909;-66
2021/08/22 07:06:51;;;;;;;;;;;20.30;92.10;;;;;;5032691;28;19963;-67
2021/08/22 07:09:18;;;;;;;;;;;20.20;92.30;;;;;;5032164;28;20027;-69
2021/08/22 07:11:45;;;;;;;;;;;20.20;92.50;;;;;;5032063;28;19932;-66
2021/08/22 07:14:11;;;;;;;;;;;20.20;92.70;;;;;;5030855;28;19917;-67
2021/08/22 07:16:39;;;;;;;;;;;20.10;92.80;;;;;;5032161;28;19916;-66
2021/08/22 07:19:07;;;;;;;;;;;20.00;92.60;;;;;;5031475;28;19963;-66
2021/08/22 07:21:34;;;;;;;;;;;20.00;92.80;;;;;;5031861;28;19909;-68
2021/08/22 07:24:01;;;;;;;;;;;20.00;93.00;;;;;;5032399;28;19991;-67
2021/08/22 07:26:27;;;;;;;;;;;20.00;92.90;;;;;;5032222;28;20439;-66
2021/08/22 07:28:54;;;;;;;;;;;19.90;93.00;;;;;;5032186;28;19909;-67
2021/08/22 07:31:21;;;;;;;;;;;19.90;92.80;;;;;;5032145;28;20030;-67
2021/08/22 07:33:48;;;;;;;;;;;19.90;93.00;;;;;;5031379;28;19996;-67
2021/08/22 07:36:14;;;;;;;;;;;19.80;93.10;;;;;;5032074;28;19940;-66
2021/08/22 07:38:41;;;;;;;;;;;19.80;93.40;;;;;;5031965;28;19924;-66
2021/08/22 07:41:07;;;;;;;;;;;19.80;93.00;;;;;;5031979;28;19910;-66
2021/08/22 07:43:34;;;;;;;;;;;19.80;92.80;;;;;;5031815;28;20329;-65
2021/08/22 07:46:01;;;;;;;;;;;19.70;92.80;;;;;;5031936;28;19909;-66
2021/08/22 07:48:28;;;;;;;;;;;19.80;92.60;;;;;;5031469;28;19968;-66
2021/08/22 07:50:54;;;;;;;;;;;19.80;92.50;;;;;;5031691;28;19980;-66
2021/08/22 07:53:21;;;;;;;;;;;19.80;92.40;;;;;;5031893;28;19999;-66
2021/08/22 07:55:48;;;;;;;;;;;19.70;92.40;;;;;;5031634;28;20364;-66
2021/08/22 07:58:14;;;;;;;;;;;19.70;92.40;;;;;;5031836;28;19910;-66
2021/08/22 08:00:41;;;;;;;;;;;19.70;92.50;;;;;;5034498;28;20653;-66
2021/08/22 08:03:08;;;;;;;;;;;19.60;92.10;;;;;;5034927;28;19917;-66
2021/08/22 08:05:34;;;;;;;;;;;19.60;92.40;;;;;;5035300;28;19909;-66
2021/08/22 08:08:01;;;;;;;;;;;19.60;92.00;;;;;;5035528;28;19916;-67
2021/08/22 08:10:28;;;;;;;;;;;19.60;91.70;;;;;;5035416;28;19909;-66
2021/08/22 08:12:54;;;;;;;;;;;19.60;91.40;;;;;;5035313;28;19909;-67
2021/08/22 08:15:22;;;;;;;;;;;19.70;91.80;;;;;;5035781;28;19916;-66
2021/08/22 08:17:49;;;;;;;;;;;19.70;91.40;;;;;;5034671;28;19936;-66
2021/08/22 08:20:16;;;;;;;;;;;19.70;91.50;;;;;;5035055;28;19951;-65
2021/08/22 08:22:42;;;;;;;;;;;19.60;91.20;;;;;;5035033;28;19943;-65
2021/08/22 08:25:09;;;;;;;;;;;19.60;91.00;;;;;;5035163;28;20004;-65
2021/08/22 08:27:36;;;;;;;;;;;19.70;90.90;;;;;;5034844;28;19909;-66
2021/08/22 08:30:03;;;;;;;;;;;19.60;90.90;;;;;;5035154;28;19920;-67
2021/08/22 08:32:30;;;;;;;;;;;19.70;90.70;;;;;;5034444;28;19947;-66
2021/08/22 08:34:56;;;;;;;;;;;19.70;90.70;;;;;;5034716;28;20455;-68
2021/08/22 08:37:23;;;;;;;;;;;19.70;90.40;;;;;;5035017;28;20360;-68
2021/08/22 08:39:50;;;;;;;;;;;19.70;90.50;;;;;;5034760;28;20073;-67
2021/08/22 08:42:21;;;;;;;;;;;19.70;90.40;;;;;;5034700;28;20016;-67
2021/08/22 08:44:48;;;;;;;;;;;19.70;90.40;;;;;;5034894;28;19910;-66
2021/08/22 08:47:19;;;;;;;;;;;19.70;90.40;;;;;;5034270;28;19932;-66
2021/08/22 08:49:51;;;;;;;;;;;19.70;90.40;;;;;;5034571;28;19909;-66
2021/08/22 08:52:44;;;;;;;;;;;19.70;90.30;;;;;;5034667;28;19916;-67
2021/08/22 08:55:11;;;;;;;;;;;19.70;90.30;;;;;;5034552;28;20399;-66
2021/08/22 08:57:38;;;;;;;;;;;19.70;90.00;;;;;;5034474;28;19913;-67
2021/08/22 09:00:24;;;;;;;;;;;19.70;90.10;;;;;;5034375;28;19913;-67
2021/08/22 09:02:51;;;;;;;;;;;19.70;89.90;;;;;;5034177;28;20445;-67
2021/08/22 09:05:18;;;;;;;;;;;19.70;90.10;;;;;;5034453;28;20280;-67
2021/08/22 09:07:51;;;;;;;;;;;19.70;90.10;;;;;;5034395;28;19916;-67
2021/08/22 09:10:35;;;;;;;;;;;19.70;90.10;;;;;;5034068;28;19916;-67
2021/08/22 09:13:02;;;;;;;;;;;19.70;90.20;;;;;;5034157;28;20329;-67
2021/08/22 09:15:47;;;;;;;;;;;19.60;90.10;;;;;;5034175;28;19913;-67
2021/08/22 09:18:26;;;;;;;;;;;19.60;90.30;;;;;;5034341;28;19988;-67
2021/08/22 09:21:11;;;;;;;;;;;19.60;90.00;;;;;;5034148;28;19917;-67
2021/08/22 09:23:55;;;;;;;;;;;19.60;90.30;;;;;;5033649;28;19921;-66
2021/08/22 09:26:49;;;;;;;;;;;19.60;90.10;;;;;;5034113;28;19972;-66
2021/08/22 09:29:34;;;;;;;;;;;19.60;90.20;;;;;;5034059;28;19909;-68
2021/08/22 09:32:18;;;;;;;;;;;19.60;90.20;;;;;;5033925;28;19916;-67
2021/08/22 09:35:05;;;;;;;;;;;19.60;90.10;;;;;;5031500;28;19972;-67
2021/08/22 09:37:50;;;;;;;;;;;19.60;89.90;;;;;;5033173;28;19909;-68
2021/08/22 09:40:35;;;;;;;;;;;19.60;90.10;;;;;;5033825;28;20360;-68
2021/08/22 09:43:20;;;;;;;;;;;19.60;90.00;;;;;;5033686;28;19924;-67
2021/08/22 09:45:52;;;;;;;;;;;19.50;90.00;;;;;;5033556;28;20332;-67
2021/08/22 09:48:37;;;;;;;;;;;19.50;90.10;;;;;;5033353;28;19925;-67
2021/08/22 09:51:22;;;;;;;;;;;19.50;90.10;;;;;;5033524;28;19909;-68
2021/08/22 09:54:06;;;;;;;;;;;19.50;90.10;;;;;;5033398;28;19939;-68
2021/08/22 09:56:52;;;;;;;;;;;19.40;90.40;;;;;;5033329;28;19955;-66
2021/08/22 09:59:36;;;;;;;;;;;19.40;90.30;;;;;;5033191;28;20384;-67
2021/08/22 10:02:11;;;;;;;;;;;19.40;90.40;;;;;;5033644;28;19940;-67
2021/08/22 10:04:37;;;;;;;;;;;19.30;90.30;;;;;;5033354;28;19910;-66
2021/08/22 10:07:07;;;;;;;;;;;19.40;90.40;;;;;;5033559;28;19909;-68
2021/08/22 10:09:55;;;;;;;;;;;19.50;90.30;;;;;;5033123;28;20000;-67
2021/08/22 10:12:22;;;;;;;;;;;19.40;90.20;;;;;;5033176;28;19913;-67
2021/08/22 10:14:48;;;;;;;;;;;19.30;90.40;;;;;;5033323;28;19910;-66
2021/08/22 10:17:21;;;;;;;;;;;19.30;90.30;;;;;;5033246;28;19943;-68
2021/08/22 10:19:49;;;;;;;;;;;19.40;90.60;;;;;;5031618;28;20020;-67
2021/08/22 10:22:19;;;;;;;;;;;19.30;90.40;;;;;;5032183;28;19999;-67
2021/08/22 10:24:53;;;;;;;;;;;19.30;90.50;;;;;;5033118;28;20033;-67
2021/08/22 10:27:37;;;;;;;;;;;19.30;90.60;;;;;;5031717;28;19913;-67
2021/08/22 10:30:04;;;;;;;;;;;19.30;90.70;;;;;;5033111;28;20003;-68
2021/08/22 10:32:31;;;;;;;;;;;19.30;90.50;;;;;;5033178;28;19953;-68
2021/08/22 10:35:13;;;;;;;;;;;19.30;90.50;;;;;;5032827;28;20302;-68
2021/08/22 10:37:40;;;;;;;;;;;19.30;90.50;;;;;;5032579;28;19913;-67
2021/08/22 10:40:22;;;;;;;;;;;19.30;90.70;;;;;;5032801;28;19932;-67
2021/08/22 10:42:49;;;;;;;;;;;19.30;90.80;;;;;;5032570;28;19928;-67
2021/08/22 10:45:34;;;;;;;;;;;19.30;90.90;;;;;;5032605;28;19909;-68
2021/08/22 10:48:01;;;;;;;;;;;19.30;90.70;;;;;;5032366;28;19928;-67
2021/08/22 10:50:27;;;;;;;;;;;19.30;90.50;;;;;;5032660;28;19913;-67
2021/08/22 10:53:14;;;;;;;;;;;19.40;90.40;;;;;;5032650;28;19913;-67
2021/08/22 10:55:40;;;;;;;;;;;19.40;90.40;;;;;;5032153;28;20275;-67
2021/08/22 10:58:07;;;;;;;;;;;19.30;90.40;;;;;;5033017;28;19909;-68
2021/08/22 11:00:36;;;;;;;;;;;19.40;90.70;;;;;;5032688;28;19913;-68
2021/08/22 11:03:18;;;;;;;;;;;19.30;90.50;;;;;;5032192;28;19917;-67
2021/08/22 11:05:45;;;;;;;;;;;19.30;90.50;;;;;;5032453;28;19936;-67
2021/08/22 11:08:17;;;;;;;;;;;19.30;90.70;;;;;;5032451;28;19956;-67
2021/08/22 11:10:57;;;;;;;;;;;19.20;90.70;;;;;;5031372;28;20387;-67
2021/08/22 11:13:24;;;;;;;;;;;19.10;90.50;;;;;;5032248;28;19932;-67
2021/08/22 11:15:50;;;;;;;;;;;19.10;90.70;;;;;;5032166;28;20015;-67
2021/08/22 11:18:17;;;;;;;;;;;19.10;90.60;;;;;;5032211;28;20331;-67
2021/08/22 11:20:44;;;;;;;;;;;19.10;90.60;;;;;;5032401;28;19917;-67
2021/08/22 11:23:18;;;;;;;;;;;19.10;90.50;;;;;;5032480;28;19924;-67
2021/08/22 11:25:51;;;;;;;;;;;19.10;90.60;;;;;;5032184;28;20284;-66
2021/08/22 11:28:18;;;;;;;;;;;19.20;90.70;;;;;;5032162;28;19909;-67
2021/08/22 11:30:46;;;;;;;;;;;19.10;90.70;;;;;;5032292;28;19909;-66
2021/08/22 11:33:13;;;;;;;;;;;19.10;90.80;;;;;;5032678;28;19963;-67
2021/08/22 11:35:41;;;;;;;;;;;19.10;90.90;;;;;;5036121;28;20447;-66
2021/08/22 11:38:08;;;;;;;;;;;19.10;90.70;;;;;;5034172;28;19916;-66
2021/08/22 11:40:35;;;;;;;;;;;19.10;90.70;;;;;;5035854;28;20253;-66
2021/08/22 11:43:03;;;;;;;;;;;19.20;90.60;;;;;;5035993;28;20011;-66
2021/08/22 11:45:31;;;;;;;;;;;19.20;90.50;;;;;;5035556;28;19917;-66
2021/08/22 11:47:58;;;;;;;;;;;19.20;90.60;;;;;;5035528;28;20288;-67
2021/08/22 11:50:30;;;;;;;;;;;19.20;90.60;;;;;;5034299;28;19910;-67
2021/08/22 11:52:58;;;;;;;;;;;19.20;90.70;;;;;;5035767;28;19913;-67
2021/08/22 11:55:26;;;;;;;;;;;19.20;90.60;;;;;;5067539;28;19916;-66
2021/08/22 11:58:06;;;;;;;;;;;19.10;90.70;;;;;;5035403;28;19913;-66
2021/08/22 12:00:33;;;;;;;;;;;19.10;90.90;;;;;;5035580;28;19945;-66
2021/08/22 12:03:02;;;;;;;;;;;19.10;90.60;;;;;;5035311;28;19921;-66
2021/08/22 12:05:32;;;;;;;;;;;19.10;90.60;;;;;;5035087;28;19963;-66
2021/08/22 12:08:02;;;;;;;;;;;19.10;90.50;;;;;;5035419;28;19920;-66
2021/08/22 12:10:29;;;;;;;;;;;19.10;90.70;;;;;;5035464;28;19909;-67
2021/08/22 12:12:56;;;;;;;;;;;19.10;90.40;;;;;;5035489;28;19909;-66
2021/08/22 12:15:29;;;;;;;;;;;19.00;90.70;;;;;;5035295;28;19932;-66
2021/08/22 12:18:14;;;;;;;;;;;19.00;90.60;;;;;;5035162;28;19909;-66
2021/08/22 12:20:41;;;;;;;;;;;18.90;90.70;;;;;;5066818;28;19909;-67
2021/08/22 12:23:08;;;;;;;;;;;18.90;90.70;;;;;;5035025;28;19924;-65
2021/08/22 12:25:35;;;;;;;;;;;18.90;90.70;;;;;;5034749;28;19936;-64
2021/08/22 12:28:20;;;;;;;;;;;18.90;90.80;;;;;;5035158;28;19909;-67
2021/08/22 12:30:49;;;;;;;;;;;18.80;90.90;;;;;;5035074;28;19909;-68
2021/08/22 12:33:36;;;;;;;;;;;18.70;91.20;;;;;;5034162;28;19913;-67
2021/08/22 12:36:03;;;;;;;;;;;18.70;91.10;;;;;;5034862;28;20384;-65
2021/08/22 12:38:34;;;;;;;;;;;18.70;91.10;;;;;;5034950;28;20007;-67
2021/08/22 12:41:19;;;;;;;;;;;18.70;91.10;;;;;;5034784;28;19978;-67
2021/08/22 12:43:45;;;;;;;;;;;18.70;91.20;;;;;;5034481;28;19917;-67
2021/08/22 12:46:12;;;;;;;;;;;18.70;91.40;;;;;;5033796;28;19909;-67
2021/08/22 12:48:39;;;;;;;;;;;18.70;91.40;;;;;;5034096;28;19917;-67
2021/08/22 12:51:12;;;;;;;;;;;18.70;91.40;;;;;;5034642;28;19951;-67
2021/08/22 12:53:38;;;;;;;;;;;18.70;91.60;;;;;;5034365;28;20438;-67
2021/08/22 12:56:05;;;;;;;;;;;18.60;91.80;;;;;;5034450;28;19909;-67
2021/08/22 12:58:32;;;;;;;;;;;18.60;92.00;;;;;;5034514;28;19913;-65
2021/08/22 13:00:59;;;;;;;;;;;18.60;92.10;;;;;;5034689;28;19955;-67
2021/08/22 13:03:25;;;;;;;;;;;18.60;92.40;;;;;;5033760;28;20382;-66
2021/08/22 13:05:52;;;;;;;;;;;18.50;92.80;;;;;;5034315;28;19913;-67
2021/08/22 13:08:19;;;;;;;;;;;18.40;93.20;;;;;;5034380;28;19913;-67
2021/08/22 13:10:45;;;;;;;;;;;18.30;93.40;;;;;;5034296;28;19910;-67
2021/08/22 13:13:12;;;;;;;;;;;18.30;93.50;;;;;;5034282;28;19909;-67
2021/08/22 13:15:39;;;;;;;;;;;18.30;93.70;;;;;;5033720;28;19957;-68
2021/08/22 13:18:06;;;;;;;;;;;18.30;93.50;;;;;;5033927;28;19916;-67
2021/08/22 13:20:32;;;;;;;;;;;18.30;93.70;;;;;;5034332;28;19944;-65
2021/08/22 13:22:59;;;;;;;;;;;18.30;93.40;;;;;;5034284;28;19961;-67
2021/08/22 13:25:26;;;;;;;;;;;18.30;93.10;;;;;;5034017;28;19909;-67
2021/08/22 13:27:52;;;;;;;;;;;18.30;91.90;;;;;;5033848;28;19984;-65
2021/08/22 13:30:19;;;;;;;;;;;18.40;91.60;;;;;;5034023;28;20000;-66
2021/08/22 13:32:46;;;;;;;;;;;18.50;90.80;;;;;;5033822;28;19909;-65
2021/08/22 13:35:12;;;;;;;;;;;18.60;90.30;;;;;;5033742;28;19913;-65
2021/08/22 13:37:39;;;;;;;;;;;18.60;90.10;;;;;;5048959;28;20365;-64
2021/08/22 13:40:06;;;;;;;;;;;18.60;90.10;;;;;;5033743;28;19988;-65
2021/08/22 13:42:32;;;;;;;;;;;18.60;90.00;;;;;;5033831;28;19925;-66
2021/08/22 13:44:59;;;;;;;;;;;18.50;90.00;;;;;;5033750;28;19924;-65
2021/08/22 13:47:26;;;;;;;;;;;18.50;90.00;;;;;;5033446;28;19975;-66
2021/08/22 13:49:52;;;;;;;;;;;18.40;89.20;;;;;;5033351;28;20316;-65
2021/08/22 13:52:19;;;;;;;;;;;18.40;89.30;;;;;;5033408;28;19913;-66
2021/08/22 13:54:46;;;;;;;;;;;18.40;89.50;;;;;;5033667;28;19909;-66
2021/08/22 13:57:12;;;;;;;;;;;18.30;90.10;;;;;;5033343;28;19909;-66
2021/08/22 13:59:39;;;;;;;;;;;18.30;89.60;;;;;;5033349;28;19909;-66
2021/08/22 14:02:05;;;;;;;;;;;18.30;89.40;;;;;;5033230;28;19913;-66
2021/08/22 14:04:32;;;;;;;;;;;18.20;89.70;;;;;;5033388;28;19913;-66
2021/08/22 14:06:59;;;;;;;;;;;18.20;89.40;;;;;;5033242;28;19916;-66
2021/08/22 14:09:25;;;;;;;;;;;18.20;89.80;;;;;;5033168;28;19912;-66
2021/08/22 14:11:52;;;;;;;;;;;18.20;89.90;;;;;;5032952;28;20375;-66
2021/08/22 14:14:19;;;;;;;;;;;18.20;89.70;;;;;;5033142;28;20372;-66
2021/08/22 14:16:45;;;;;;;;;;;18.10;89.90;;;;;;5033005;28;19913;-66
2021/08/22 14:19:12;;;;;;;;;;;18.10;89.60;;;;;;5033301;28;19910;-66
2021/08/22 14:21:39;;;;;;;;;;;18.10;89.40;;;;;;5032812;28;19909;-66
2021/08/22 14:24:05;;;;;;;;;;;18.10;89.40;;;;;;5032917;28;19920;-66
2021/08/22 14:26:32;;;;;;;;;;;18.10;89.70;;;;;;5032903;28;19909;-66